Time;durP1;ratioP1;P1;durP2;ratioP2;P2;SDS_P1;SDS_P2;PMS_P1;PMS_P2;Temp;Humidity;BMP_temperature;BMP_pressure;BME280_temperature;BME280_humidity;BME280_pressure;Samples;Min_cycle;Max_cycle;Signal;HPM_P1;HPM_P2
2023/07/31 00:00:21;;;;;;;5.77;1.90;;;;;;;;;;5064159;28;20283;-70
2023/07/31 00:02:46;;;;;;;3.13;2.17;;;;;;;;;;5050502;28;20329;-71
2023/07/31 00:05:11;;;;;;;3.07;2.20;;;;;;;;;;5030358;28;20095;-72
2023/07/31 00:07:37;;;;;;;3.00;2.30;;;;;;;;;;5065755;28;20834;-71
2023/07/31 00:10:02;;;;;;;2.75;2.05;;;;;;;;;;5065136;28;20286;-71
2023/07/31 00:12:27;;;;;;;2.97;2.20;;;;;;;;;;5068440;28;20029;-71
2023/07/31 00:14:53;;;;;;;2.65;2.03;;;;;;;;;;5056071;28;20472;-71
2023/07/31 00:17:18;;;;;;;3.20;2.20;;;;;;;;;;5064017;28;20556;-71
2023/07/31 00:19:45;;;;;;;2.75;1.88;;;;;;;;;;5051767;28;20033;-71
2023/07/31 00:22:11;;;;;;;3.92;2.30;;;;;;;;;;5067843;28;20073;-71
2023/07/31 00:24:36;;;;;;;2.60;2.08;;;;;;;;;;5056038;28;20151;-71
2023/07/31 00:27:01;;;;;;;2.77;2.27;;;;;;;;;;5047386;28;20043;-71
2023/07/31 00:29:27;;;;;;;3.75;2.58;;;;;;;;;;5070506;28;20089;-72
2023/07/31 00:31:52;;;;;;;4.10;2.77;;;;;;;;;;5049734;28;20513;-71
2023/07/31 00:34:17;;;;;;;3.60;2.80;;;;;;;;;;5050215;28;20373;-71
2023/07/31 00:36:42;;;;;;;3.37;2.50;;;;;;;;;;5062517;28;20039;-71
2023/07/31 00:39:08;;;;;;;4.82;2.72;;;;;;;;;;5060585;28;20213;-71
2023/07/31 00:41:33;;;;;;;5.00;3.03;;;;;;;;;;5048765;28;20544;-71
2023/07/31 00:43:58;;;;;;;3.97;2.60;;;;;;;;;;5068285;28;20048;-70
2023/07/31 00:46:23;;;;;;;5.00;2.77;;;;;;;;;;5069464;28;20616;-71
2023/07/31 00:48:49;;;;;;;4.18;3.28;;;;;;;;;;5060827;28;20523;-71
2023/07/31 00:51:14;;;;;;;3.90;2.88;;;;;;;;;;5079443;28;20044;-71
2023/07/31 00:53:39;;;;;;;3.80;3.00;;;;;;;;;;5057364;28;20044;-70
2023/07/31 00:56:04;;;;;;;4.50;3.50;;;;;;;;;;5055210;28;20047;-71
2023/07/31 00:58:30;;;;;;;4.57;3.47;;;;;;;;;;5061763;28;20044;-71
2023/07/31 01:00:55;;;;;;;4.45;3.40;;;;;;;;;;5032286;28;20063;-71
2023/07/31 01:03:20;;;;;;;4.93;3.77;;;;;;;;;;5056273;28;20059;-72
2023/07/31 01:05:49;;;;;;;4.60;3.67;;;;;;;;;;5062389;28;20355;-71
2023/07/31 01:08:27;;;;;;;5.22;4.28;;;;;;;;;;5045624;28;21332;-71
2023/07/31 01:10:55;;;;;;;6.25;4.32;;;;;;;;;;5061502;28;20117;-71
2023/07/31 01:13:20;;;;;;;5.40;4.57;;;;;;;;;;5047578;28;20040;-71
2023/07/31 01:15:45;;;;;;;7.03;5.60;;;;;;;;;;5032640;28;20053;-71
2023/07/31 01:18:10;;;;;;;6.60;4.93;;;;;;;;;;5054047;28;20036;-71
2023/07/31 01:20:36;;;;;;;7.20;6.40;;;;;;;;;;5084052;28;20730;-71
2023/07/31 01:23:13;;;;;;;6.80;5.97;;;;;;;;;;5062659;28;20457;-71
2023/07/31 01:25:44;;;;;;;7.35;6.50;;;;;;;;;;5062620;28;20695;-71
2023/07/31 01:28:12;;;;;;;8.38;6.80;;;;;;;;;;5055343;28;20120;-71
2023/07/31 01:30:37;;;;;;;7.50;6.68;;;;;;;;;;5048457;28;20060;-70
2023/07/31 01:33:09;;;;;;;9.93;7.57;;;;;;;;;;5067395;28;20055;-70
2023/07/31 01:35:34;;;;;;;10.20;7.07;;;;;;;;;;5061444;28;20207;-72
2023/07/31 01:38:00;;;;;;;9.43;8.05;;;;;;;;;;5063227;28;20119;-72
2023/07/31 01:40:25;;;;;;;10.07;8.35;;;;;;;;;;5061174;28;20037;-72
2023/07/31 01:42:50;;;;;;;10.00;8.97;;;;;;;;;;5066376;28;20056;-72
2023/07/31 01:45:15;;;;;;;11.83;9.30;;;;;;;;;;5058037;28;20037;-72
2023/07/31 01:47:41;;;;;;;11.40;10.10;;;;;;;;;;5053461;28;20287;-72
2023/07/31 01:50:06;;;;;;;13.00;10.07;;;;;;;;;;5053384;28;20034;-72
2023/07/31 01:52:31;;;;;;;12.52;10.50;;;;;;;;;;5050461;28;20113;-72
2023/07/31 01:54:57;;;;;;;15.73;11.80;;;;;;;;;;5047142;28;20151;-71
2023/07/31 01:57:22;;;;;;;14.87;12.30;;;;;;;;;;5058751;28;20298;-72
2023/07/31 01:59:47;;;;;;;13.10;11.70;;;;;;;;;;5055268;28;20290;-70
2023/07/31 02:02:12;;;;;;;14.32;12.45;;;;;;;;;;5045601;28;20726;-70
2023/07/31 02:04:39;;;;;;;14.55;12.40;;;;;;;;;;5064652;28;20119;-70
2023/07/31 02:07:04;;;;;;;14.75;13.20;;;;;;;;;;5064662;28;20125;-71
2023/07/31 02:09:30;;;;;;;15.45;13.07;;;;;;;;;;5040149;28;20059;-71
2023/07/31 02:11:55;;;;;;;16.90;14.20;;;;;;;;;;5059410;28;20037;-70
2023/07/31 02:14:20;;;;;;;15.47;13.30;;;;;;;;;;5054556;28;20676;-70
2023/07/31 02:16:45;;;;;;;15.57;12.93;;;;;;;;;;5049166;28;20415;-71
2023/07/31 02:19:10;;;;;;;15.30;12.77;;;;;;;;;;5064019;28;20317;-71
2023/07/31 02:21:36;;;;;;;14.23;12.73;;;;;;;;;;5045982;28;20395;-71
2023/07/31 02:24:01;;;;;;;17.30;13.63;;;;;;;;;;5045225;28;20295;-72
2023/07/31 02:26:26;;;;;;;18.90;14.07;;;;;;;;;;5045923;28;20290;-73
2023/07/31 02:28:51;;;;;;;15.97;13.60;;;;;;;;;;5050263;28;20044;-70
2023/07/31 02:31:17;;;;;;;16.60;13.43;;;;;;;;;;5051951;28;20045;-70
2023/07/31 02:33:42;;;;;;;16.55;13.15;;;;;;;;;;5057033;28;20040;-71
2023/07/31 02:36:07;;;;;;;16.40;13.77;;;;;;;;;;5056096;28;20037;-71
2023/07/31 02:38:32;;;;;;;19.23;13.73;;;;;;;;;;5045082;28;20116;-72
2023/07/31 02:40:58;;;;;;;15.80;13.50;;;;;;;;;;5046808;28;20033;-71
2023/07/31 02:43:23;;;;;;;14.60;12.87;;;;;;;;;;5044501;28;20711;-71
2023/07/31 02:45:52;;;;;;;15.37;13.77;;;;;;;;;;5062941;28;20291;-71
2023/07/31 02:48:17;;;;;;;17.30;14.00;;;;;;;;;;5065531;28;20044;-67
2023/07/31 02:50:43;;;;;;;16.58;13.45;;;;;;;;;;5052344;28;20036;-70
2023/07/31 02:53:08;;;;;;;15.70;13.87;;;;;;;;;;5064273;28;20055;-69
2023/07/31 02:55:33;;;;;;;15.57;13.60;;;;;;;;;;5045789;28;20024;-70
2023/07/31 02:57:58;;;;;;;17.07;13.40;;;;;;;;;;5060769;28;20504;-69
2023/07/31 03:00:24;;;;;;;16.85;14.63;;;;;;;;;;5044492;28;20308;-71
2023/07/31 03:02:49;;;;;;;17.25;13.27;;;;;;;;;;5063407;28;20027;-70
2023/07/31 03:05:14;;;;;;;14.83;13.23;;;;;;;;;;5048411;28;20107;-70
2023/07/31 03:07:39;;;;;;;17.83;13.85;;;;;;;;;;5045506;28;20255;-71
2023/07/31 03:10:05;;;;;;;17.27;14.00;;;;;;;;;;5043111;28;20297;-70
2023/07/31 03:12:30;;;;;;;16.73;13.68;;;;;;;;;;5046474;28;20889;-71
2023/07/31 03:14:55;;;;;;;17.63;14.63;;;;;;;;;;5063827;28;20485;-70
2023/07/31 03:17:21;;;;;;;16.03;14.20;;;;;;;;;;5063188;28;20021;-71
2023/07/31 03:19:46;;;;;;;17.53;15.07;;;;;;;;;;5060758;28;20012;-71
2023/07/31 03:22:11;;;;;;;17.20;14.77;;;;;;;;;;5038207;28;20425;-71
2023/07/31 03:24:36;;;;;;;17.93;15.17;;;;;;;;;;5055796;28;20036;-71
2023/07/31 03:27:02;;;;;;;15.87;13.37;;;;;;;;;;5061886;28;20383;-69
2023/07/31 03:29:27;;;;;;;17.92;14.18;;;;;;;;;;5051440;28;20290;-70
2023/07/31 03:31:52;;;;;;;17.98;14.75;;;;;;;;;;5062627;28;20025;-71
2023/07/31 03:34:17;;;;;;;18.17;14.80;;;;;;;;;;5064582;28;20043;-71
2023/07/31 03:36:43;;;;;;;15.97;14.10;;;;;;;;;;5055365;28;20321;-71
2023/07/31 03:39:08;;;;;;;18.02;14.68;;;;;;;;;;5053362;28;20252;-71
2023/07/31 03:41:33;;;;;;;18.40;14.43;;;;;;;;;;5043311;28;20396;-71
2023/07/31 03:43:58;;;;;;;18.50;14.87;;;;;;;;;;5043500;28;20017;-70
2023/07/31 03:46:24;;;;;;;17.03;14.60;;;;;;;;;;5050691;28;20266;-70
2023/07/31 03:48:49;;;;;;;18.73;15.13;;;;;;;;;;5058141;28;20384;-71
2023/07/31 03:51:14;;;;;;;19.33;15.17;;;;;;;;;;5054814;28;20025;-70
2023/07/31 03:53:39;;;;;;;18.48;15.15;;;;;;;;;;5063988;28;20278;-71
2023/07/31 03:56:05;;;;;;;22.10;15.30;;;;;;;;;;5061612;28;20585;-71
2023/07/31 03:58:30;;;;;;;17.53;14.73;;;;;;;;;;5044325;28;20552;-71
2023/07/31 04:00:55;;;;;;;21.13;15.10;;;;;;;;;;5062500;28;20360;-71
2023/07/31 04:03:20;;;;;;;19.50;15.67;;;;;;;;;;5046216;28;20344;-71
2023/07/31 04:05:46;;;;;;;20.07;15.87;;;;;;;;;;5061890;28;20041;-71
2023/07/31 04:08:11;;;;;;;20.83;16.27;;;;;;;;;;5063791;28;20271;-71
2023/07/31 04:10:36;;;;;;;21.58;17.67;;;;;;;;;;5040845;28;20062;-71
2023/07/31 04:13:01;;;;;;;21.43;16.07;;;;;;;;;;5029077;28;20040;-71
2023/07/31 04:15:27;;;;;;;23.97;17.00;;;;;;;;;;5061335;28;20318;-72
2023/07/31 04:17:52;;;;;;;21.77;16.60;;;;;;;;;;5059241;28;20024;-72
2023/07/31 04:20:17;;;;;;;21.10;16.27;;;;;;;;;;5044509;28;20287;-72
2023/07/31 04:22:42;;;;;;;23.00;16.70;;;;;;;;;;5056889;28;20036;-70
2023/07/31 04:25:08;;;;;;;18.77;15.73;;;;;;;;;;5062153;28;20100;-73
2023/07/31 04:27:33;;;;;;;20.83;16.33;;;;;;;;;;5046221;28;20663;-71
2023/07/31 04:29:58;;;;;;;19.87;16.10;;;;;;;;;;5057078;28;20021;-70
2023/07/31 04:32:24;;;;;;;21.20;16.13;;;;;;;;;;5055350;28;20413;-71
2023/07/31 04:34:49;;;;;;;22.02;16.23;;;;;;;;;;5062157;28;20059;-71
2023/07/31 04:37:14;;;;;;;21.15;17.50;;;;;;;;;;5058736;28;20020;-68
2023/07/31 04:39:40;;;;;;;19.70;15.07;;;;;;;;;;5053680;28;20409;-69
2023/07/31 04:42:05;;;;;;;20.77;16.02;;;;;;;;;;5052391;28;20354;-69
2023/07/31 04:44:30;;;;;;;18.37;15.40;;;;;;;;;;5053251;28;20032;-68
2023/07/31 04:46:55;;;;;;;20.15;15.45;;;;;;;;;;5058502;28;20701;-67
2023/07/31 04:49:21;;;;;;;23.17;16.47;;;;;;;;;;5053351;28;20453;-69
2023/07/31 04:51:47;;;;;;;23.67;16.80;;;;;;;;;;5052124;28;20013;-71
2023/07/31 04:54:14;;;;;;;20.23;15.87;;;;;;;;;;5053044;28;20054;-70
2023/07/31 04:56:39;;;;;;;20.92;15.43;;;;;;;;;;5042239;28;20278;-70
2023/07/31 04:59:05;;;;;;;21.07;16.00;;;;;;;;;;5042136;28;20041;-68
2023/07/31 05:01:30;;;;;;;24.70;15.73;;;;;;;;;;5054413;28;20297;-71
2023/07/31 05:03:55;;;;;;;19.33;15.27;;;;;;;;;;5053089;28;20025;-71
2023/07/31 05:06:20;;;;;;;20.20;15.53;;;;;;;;;;5052901;28;20354;-72
2023/07/31 05:08:46;;;;;;;21.30;15.33;;;;;;;;;;5040500;28;20532;-71
2023/07/31 05:11:11;;;;;;;19.40;15.23;;;;;;;;;;5053701;28;20376;-70
2023/07/31 05:13:37;;;;;;;23.27;15.32;;;;;;;;;;5052847;28;20278;-70
2023/07/31 05:16:02;;;;;;;19.48;15.32;;;;;;;;;;5053849;28;20056;-70
2023/07/31 05:18:27;;;;;;;18.90;14.98;;;;;;;;;;5036628;28;20076;-72
2023/07/31 05:20:52;;;;;;;18.30;14.37;;;;;;;;;;5052850;28;20052;-70
2023/07/31 05:23:18;;;;;;;19.42;14.60;;;;;;;;;;5053844;28;20373;-71
2023/07/31 05:25:43;;;;;;;18.43;14.70;;;;;;;;;;5055876;22;20438;-68
2023/07/31 05:28:08;;;;;;;17.93;13.57;;;;;;;;;;5035225;28;20123;-68
2023/07/31 05:30:33;;;;;;;19.07;13.87;;;;;;;;;;5038192;28;20064;-70
2023/07/31 05:32:59;;;;;;;15.97;13.20;;;;;;;;;;5039479;28;20279;-70
2023/07/31 05:35:24;;;;;;;17.17;12.43;;;;;;;;;;5021641;28;20299;-70
2023/07/31 05:37:49;;;;;;;15.20;11.70;;;;;;;;;;5038178;28;20572;-68
2023/07/31 05:40:14;;;;;;;14.50;11.77;;;;;;;;;;5036779;28;20411;-71
2023/07/31 05:42:40;;;;;;;14.13;11.00;;;;;;;;;;5021197;28;20098;-69
2023/07/31 05:45:06;;;;;;;13.83;10.97;;;;;;;;;;5055989;22;20045;-77
2023/07/31 05:47:31;;;;;;;12.15;10.48;;;;;;;;;;5037785;28;20286;-77
2023/07/31 05:49:56;;;;;;;11.35;9.00;;;;;;;;;;5035875;28;20037;-76
2023/07/31 05:52:22;;;;;;;12.03;9.20;;;;;;;;;;5053184;28;20550;-78
2023/07/31 05:54:47;;;;;;;10.53;8.77;;;;;;;;;;5064402;28;20803;-79
2023/07/31 05:57:12;;;;;;;10.82;8.75;;;;;;;;;;5058419;28;20335;-78
2023/07/31 05:59:37;;;;;;;10.30;7.87;;;;;;;;;;5075773;28;20797;-77
2023/07/31 06:02:03;;;;;;;9.33;7.40;;;;;;;;;;5044080;28;20307;-74
2023/07/31 06:04:28;;;;;;;8.70;7.20;;;;;;;;;;5060497;28;20055;-79
2023/07/31 06:06:53;;;;;;;9.40;6.73;;;;;;;;;;5044631;28;20043;-79
2023/07/31 06:09:20;;;;;;;8.27;6.50;;;;;;;;;;5059811;28;20275;-80
2023/07/31 06:11:45;;;;;;;8.60;6.07;;;;;;;;;;5055451;28;20028;-79
2023/07/31 06:14:10;;;;;;;7.28;5.93;;;;;;;;;;5059249;28;20467;-74
2023/07/31 06:16:36;;;;;;;5.30;4.60;;;;;;;;;;5060647;28;20838;-78
2023/07/31 06:19:01;;;;;;;6.13;4.60;;;;;;;;;;5047873;28;20267;-81
2023/07/31 06:21:26;;;;;;;5.80;4.47;;;;;;;;;;5043465;28;20275;-76
2023/07/31 06:23:51;;;;;;;6.27;4.40;;;;;;;;;;5062036;28;20469;-77
2023/07/31 06:26:16;;;;;;;5.73;3.70;;;;;;;;;;5042970;28;20502;-77
2023/07/31 06:28:42;;;;;;;5.57;3.85;;;;;;;;;;5060304;28;20111;-78
2023/07/31 06:31:07;;;;;;;6.30;3.92;;;;;;;;;;5058179;28;20119;-80
2023/07/31 06:33:32;;;;;;;5.30;3.63;;;;;;;;;;5059311;28;20464;-79
2023/07/31 06:35:57;;;;;;;5.23;3.63;;;;;;;;;;5061918;28;20609;-80
2023/07/31 06:38:24;;;;;;;5.40;3.43;;;;;;;;;;5043787;28;20314;-82
2023/07/31 06:40:49;;;;;;;4.53;3.67;;;;;;;;;;5050321;28;20215;-80
2023/07/31 06:43:14;;;;;;;6.03;3.87;;;;;;;;;;5049204;28;20033;-82
2023/07/31 06:45:39;;;;;;;6.55;3.80;;;;;;;;;;5053015;28;20067;-80
2023/07/31 06:48:05;;;;;;;6.03;4.20;;;;;;;;;;5054856;28;20041;-81
2023/07/31 06:50:30;;;;;;;6.13;3.75;;;;;;;;;;5034246;28;20032;-80
2023/07/31 06:52:56;;;;;;;4.80;3.65;;;;;;;;;;5033367;28;20106;-81
2023/07/31 06:55:24;;;;;;;5.87;3.40;;;;;;;;;;5040038;28;20056;-85
2023/07/31 06:57:49;;;;;;;5.95;3.65;;;;;;;;;;5049065;28;20305;-82
2023/07/31 07:00:15;;;;;;;7.13;3.63;;;;;;;;;;5043662;28;20040;-88
2023/07/31 07:02:40;;;;;;;4.43;3.38;;;;;;;;;;5053417;28;20461;-83
2023/07/31 07:05:06;;;;;;;4.28;3.17;;;;;;;;;;5058028;28;20488;-84
2023/07/31 07:07:31;;;;;;;3.53;2.70;;;;;;;;;;5053635;28;20116;-83
2023/07/31 07:09:59;;;;;;;5.13;3.27;;;;;;;;;;5056611;28;20036;-85
2023/07/31 07:12:24;;;;;;;4.60;3.30;;;;;;;;;;5045972;28;20043;-85
2023/07/31 07:14:49;;;;;;;4.43;2.90;;;;;;;;;;5063221;28;20056;-83
2023/07/31 07:17:15;;;;;;;3.60;2.75;;;;;;;;;;5060218;28;20287;-83
2023/07/31 07:19:40;;;;;;;4.03;3.05;;;;;;;;;;5037964;28;20141;-85
2023/07/31 07:22:05;;;;;;;4.87;2.63;;;;;;;;;;5046221;28;20032;-86
2023/07/31 07:24:31;;;;;;;5.30;2.70;;;;;;;;;;5055774;28;20295;-85
2023/07/31 07:26:56;;;;;;;4.13;2.42;;;;;;;;;;5043475;28;20454;-82
2023/07/31 07:29:21;;;;;;;3.43;2.50;;;;;;;;;;5057665;28;20040;-79
2023/07/31 07:31:46;;;;;;;4.15;2.60;;;;;;;;;;5070075;28;20032;-85
2023/07/31 07:34:12;;;;;;;3.87;2.83;;;;;;;;;;5058759;28;20499;-85
2023/07/31 07:36:37;;;;;;;4.63;2.83;;;;;;;;;;5051978;28;20502;-85
2023/07/31 07:39:02;;;;;;;5.90;3.05;;;;;;;;;;5037498;28;20549;-83
2023/07/31 07:41:28;;;;;;;4.43;3.40;;;;;;;;;;5051485;28;20097;-84
2023/07/31 07:43:53;;;;;;;5.47;2.53;;;;;;;;;;5065619;28;20032;-85
2023/07/31 07:46:18;;;;;;;4.18;2.72;;;;;;;;;;5054863;28;20056;-85
2023/07/31 07:48:44;;;;;;;4.20;2.65;;;;;;;;;;5056728;28;20071;-85
2023/07/31 07:51:09;;;;;;;4.93;3.07;;;;;;;;;;5043754;28;20096;-84
2023/07/31 07:53:34;;;;;;;4.93;2.67;;;;;;;;;;5033527;28;20132;-84
2023/07/31 07:56:00;;;;;;;4.10;2.47;;;;;;;;;;5056028;28;21730;-84
2023/07/31 07:58:25;;;;;;;3.38;2.45;;;;;;;;;;5049978;28;20067;-82
2023/07/31 08:00:50;;;;;;;3.90;2.20;;;;;;;;;;5039765;28;20036;-83
2023/07/31 08:03:16;;;;;;;3.72;2.42;;;;;;;;;;5056376;28;20172;-83
2023/07/31 08:05:42;;;;;;;3.03;2.50;;;;;;;;;;5054898;28;20033;-84
2023/07/31 08:08:07;;;;;;;3.67;2.22;;;;;;;;;;5043029;28;20511;-85
2023/07/31 08:10:32;;;;;;;3.17;2.47;;;;;;;;;;5059433;28;20056;-80
2023/07/31 08:12:58;;;;;;;3.60;2.45;;;;;;;;;;5040837;28;20043;-82
2023/07/31 08:15:23;;;;;;;5.60;2.80;;;;;;;;;;5052116;28;20062;-81
2023/07/31 08:17:48;;;;;;;4.38;2.40;;;;;;;;;;5054088;28;20025;-80
2023/07/31 08:20:14;;;;;;;3.83;2.30;;;;;;;;;;5045091;28;20143;-74
2023/07/31 08:22:40;;;;;;;4.75;2.50;;;;;;;;;;5050713;28;20295;-82
2023/07/31 08:25:06;;;;;;;4.53;2.63;;;;;;;;;;5058702;28;20469;-82
2023/07/31 08:27:31;;;;;;;5.88;2.70;;;;;;;;;;5036285;28;20037;-83
2023/07/31 08:29:57;;;;;;;3.70;2.72;;;;;;;;;;5040536;28;20477;-82
2023/07/31 08:32:22;;;;;;;4.28;2.50;;;;;;;;;;5041596;28;20054;-84
2023/07/31 08:34:47;;;;;;;4.57;2.23;;;;;;;;;;5044001;28;20795;-92
2023/07/31 08:37:13;;;;;;;3.85;2.42;;;;;;;;;;5047378;28;20303;-86
2023/07/31 08:39:39;;;;;;;2.97;2.40;;;;;;;;;;5047851;28;20025;-83
2023/07/31 08:42:07;;;;;;;3.90;2.70;;;;;;;;;;5068141;28;20287;-92
2023/07/31 08:44:32;;;;;;;3.85;2.30;;;;;;;;;;5049636;28;20028;-91
2023/07/31 08:46:57;;;;;;;4.22;2.05;;;;;;;;;;5043537;28;20039;-74
2023/07/31 08:49:23;;;;;;;4.47;2.53;;;;;;;;;;5055764;28;20067;-75
2023/07/31 08:51:49;;;;;;;4.03;2.57;;;;;;;;;;5052645;28;20654;-74
2023/07/31 08:54:14;;;;;;;3.35;2.30;;;;;;;;;;5058431;28;20052;-75
2023/07/31 08:56:39;;;;;;;3.67;1.90;;;;;;;;;;5055657;28;20628;-75
2023/07/31 08:59:05;;;;;;;4.53;2.27;;;;;;;;;;5057752;28;20348;-76
2023/07/31 09:01:31;;;;;;;3.93;2.13;;;;;;;;;;5052716;28;20750;-75
2023/07/31 09:03:56;;;;;;;3.40;2.08;;;;;;;;;;5049954;28;20037;-74
2023/07/31 09:06:22;;;;;;;4.40;2.40;;;;;;;;;;5052099;28;20205;-74
2023/07/31 09:08:47;;;;;;;3.97;2.20;;;;;;;;;;5049334;28;20029;-74
2023/07/31 09:11:13;;;;;;;3.50;2.50;;;;;;;;;;5048824;28;20033;-74
2023/07/31 09:13:38;;;;;;;3.67;2.50;;;;;;;;;;5051247;28;20287;-76
2023/07/31 09:16:03;;;;;;;3.57;2.53;;;;;;;;;;5052171;28;20351;-74
2023/07/31 09:18:28;;;;;;;3.10;2.33;;;;;;;;;;5051745;28;20302;-74
2023/07/31 09:21:01;;;;;;;3.43;2.17;;;;;;;;;;5057438;28;20039;-74
2023/07/31 09:23:26;;;;;;;4.15;2.17;;;;;;;;;;5050494;28;20039;-74
2023/07/31 09:25:51;;;;;;;3.90;2.07;;;;;;;;;;5040381;28;20431;-75
2023/07/31 09:28:16;;;;;;;3.10;2.03;;;;;;;;;;5045665;28;20037;-75
2023/07/31 09:30:51;;;;;;;3.70;2.53;;;;;;;;;;5028738;28;20032;-74
2023/07/31 09:33:16;;;;;;;4.35;2.40;;;;;;;;;;5064746;28;20036;-75
2023/07/31 09:35:41;;;;;;;4.63;2.50;;;;;;;;;;5050935;28;20125;-77
2023/07/31 09:38:08;;;;;;;5.28;2.50;;;;;;;;;;5052839;28;20098;-77
2023/07/31 09:40:34;;;;;;;4.38;2.63;;;;;;;;;;5064127;28;20039;-77
2023/07/31 09:43:00;;;;;;;3.92;2.75;;;;;;;;;;5063966;28;20036;-77
2023/07/31 09:45:25;;;;;;;6.65;3.05;;;;;;;;;;5044182;28;20510;-77
2023/07/31 09:47:51;;;;;;;5.25;2.53;;;;;;;;;;5061141;28;20075;-81
2023/07/31 09:50:16;;;;;;;4.43;2.75;;;;;;;;;;5033817;28;20025;-76
2023/07/31 09:52:41;;;;;;;3.93;2.63;;;;;;;;;;5046952;28;20025;-78
2023/07/31 09:55:07;;;;;;;5.25;2.90;;;;;;;;;;5055243;28;20040;-77
2023/07/31 09:57:33;;;;;;;5.40;2.60;;;;;;;;;;5043603;28;20040;-76
2023/07/31 09:59:58;;;;;;;4.95;2.47;;;;;;;;;;5063232;28;20047;-77
2023/07/31 10:02:23;;;;;;;3.70;2.20;;;;;;;;;;5045709;28;20060;-78
2023/07/31 10:04:51;;;;;;;3.15;2.15;;;;;;;;;;5037027;28;20029;-77
2023/07/31 10:07:17;;;;;;;2.60;1.83;;;;;;;;;;5067911;28;20040;-77
2023/07/31 10:09:42;;;;;;;3.03;1.95;;;;;;;;;;5046936;28;20059;-77
2023/07/31 10:12:09;;;;;;;2.67;1.60;;;;;;;;;;5063256;28;20083;-79
2023/07/31 10:14:34;;;;;;;2.35;1.70;;;;;;;;;;5032339;28;20762;-79
2023/07/31 10:17:00;;;;;;;2.67;1.77;;;;;;;;;;5052241;28;20116;-80
2023/07/31 10:19:26;;;;;;;3.63;1.85;;;;;;;;;;5042463;28;20029;-74
2023/07/31 10:21:51;;;;;;;3.22;1.80;;;;;;;;;;5061941;28;20433;-76
2023/07/31 10:24:16;;;;;;;2.93;1.83;;;;;;;;;;5057744;28;20041;-75
2023/07/31 10:26:42;;;;;;;4.10;2.07;;;;;;;;;;5078402;28;20139;-74
2023/07/31 10:29:07;;;;;;;3.47;2.08;;;;;;;;;;5054514;28;20831;-76
2023/07/31 10:31:32;;;;;;;3.77;1.60;;;;;;;;;;5059254;28;20482;-77
2023/07/31 10:33:59;;;;;;;2.27;1.57;;;;;;;;;;5042832;28;20283;-78
2023/07/31 10:36:24;;;;;;;3.53;1.83;;;;;;;;;;5062084;28;20923;-78
2023/07/31 10:38:50;;;;;;;2.67;1.80;;;;;;;;;;5056397;28;20127;-77
2023/07/31 10:41:16;;;;;;;2.65;2.00;;;;;;;;;;5055239;28;20318;-76
2023/07/31 10:43:41;;;;;;;3.92;1.90;;;;;;;;;;5051898;28;20055;-77
2023/07/31 10:46:07;;;;;;;2.87;1.73;;;;;;;;;;5054153;28;20041;-76
2023/07/31 10:48:37;;;;;;;2.70;1.60;;;;;;;;;;5057274;28;20294;-73
2023/07/31 10:51:06;;;;;;;3.17;1.92;;;;;;;;;;5053856;28;20489;-75
2023/07/31 10:53:32;;;;;;;3.58;1.77;;;;;;;;;;5049303;28;20066;-72
2023/07/31 10:55:59;;;;;;;2.97;2.00;;;;;;;;;;5051911;28;20563;-78
2023/07/31 10:58:24;;;;;;;3.58;1.83;;;;;;;;;;5071688;28;20272;-73
2023/07/31 11:00:49;;;;;;;3.40;2.00;;;;;;;;;;5064551;28;20424;-74
2023/07/31 11:03:15;;;;;;;4.17;2.27;;;;;;;;;;5064337;28;20520;-76
2023/07/31 11:05:44;;;;;;;2.80;1.75;;;;;;;;;;5060735;28;20276;-75
2023/07/31 11:08:20;;;;;;;3.30;1.63;;;;;;;;;;5073015;28;20118;-74
2023/07/31 11:10:45;;;;;;;3.08;1.80;;;;;;;;;;5064676;28;20514;-75
2023/07/31 11:13:11;;;;;;;2.97;1.92;;;;;;;;;;5061155;28;20039;-75
2023/07/31 11:15:36;;;;;;;2.30;1.50;;;;;;;;;;5057203;28;20347;-75
2023/07/31 11:18:05;;;;;;;2.83;1.50;;;;;;;;;;5037666;28;20075;-74
2023/07/31 11:20:31;;;;;;;2.93;1.37;;;;;;;;;;5044670;28;20098;-74
2023/07/31 11:22:58;;;;;;;2.72;1.65;;;;;;;;;;5062919;28;20086;-75
2023/07/31 11:25:23;;;;;;;2.00;1.42;;;;;;;;;;5052562;28;20124;-74
2023/07/31 11:27:53;;;;;;;3.40;1.60;;;;;;;;;;5049572;28;20427;-74
2023/07/31 11:30:18;;;;;;;3.58;1.50;;;;;;;;;;5050742;28;20045;-75
2023/07/31 11:32:44;;;;;;;2.70;1.48;;;;;;;;;;5050616;28;20013;-75
2023/07/31 11:35:12;;;;;;;2.70;1.37;;;;;;;;;;5040712;28;20418;-74
2023/07/31 11:37:41;;;;;;;2.10;1.40;;;;;;;;;;5058874;28;22216;-75
2023/07/31 11:40:06;;;;;;;3.03;1.42;;;;;;;;;;5062264;28;20021;-74
2023/07/31 11:42:31;;;;;;;3.08;1.70;;;;;;;;;;5065940;28;20027;-74
2023/07/31 11:44:57;;;;;;;2.28;1.67;;;;;;;;;;5066395;28;20028;-75
2023/07/31 11:47:22;;;;;;;2.87;1.60;;;;;;;;;;5067505;28;20027;-74
2023/07/31 11:49:47;;;;;;;3.00;1.67;;;;;;;;;;5067453;28;20549;-74
2023/07/31 11:52:13;;;;;;;2.58;1.65;;;;;;;;;;5066672;28;20514;-74
2023/07/31 11:54:39;;;;;;;2.57;1.73;;;;;;;;;;5046379;28;20047;-75
2023/07/31 11:57:05;;;;;;;2.83;1.90;;;;;;;;;;5060547;28;20043;-74
2023/07/31 11:59:30;;;;;;;3.10;1.92;;;;;;;;;;5049616;28;20013;-74
2023/07/31 12:01:55;;;;;;;4.17;2.00;;;;;;;;;;5066394;28;20149;-75
2023/07/31 12:04:21;;;;;;;2.60;2.08;;;;;;;;;;5058838;28;20111;-75
2023/07/31 12:06:47;;;;;;;3.05;1.92;;;;;;;;;;5047225;28;20822;-74
2023/07/31 12:09:12;;;;;;;3.72;2.00;;;;;;;;;;5063399;28;20434;-75
2023/07/31 12:11:44;;;;;;;3.07;2.00;;;;;;;;;;5065684;28;20469;-75
2023/07/31 12:14:19;;;;;;;3.58;2.25;;;;;;;;;;5045631;28;20350;-75
2023/07/31 12:16:44;;;;;;;3.88;1.80;;;;;;;;;;5055416;28;20057;-75
2023/07/31 12:19:09;;;;;;;4.00;2.37;;;;;;;;;;5059592;28;20522;-78
2023/07/31 12:21:34;;;;;;;4.97;2.90;;;;;;;;;;5064615;28;20744;-75
2023/07/31 12:24:00;;;;;;;5.13;3.07;;;;;;;;;;5065576;28;20415;-75
2023/07/31 12:26:25;;;;;;;4.30;3.13;;;;;;;;;;5062584;28;20465;-76
2023/07/31 12:28:50;;;;;;;5.50;3.27;;;;;;;;;;5065174;28;20284;-75
2023/07/31 12:31:20;;;;;;;4.68;3.67;;;;;;;;;;5064640;28;20040;-76
2023/07/31 12:33:50;;;;;;;5.20;4.40;;;;;;;;;;5043259;28;20040;-76
2023/07/31 12:36:16;;;;;;;4.90;3.80;;;;;;;;;;5055542;28;20550;-75
2023/07/31 12:38:41;;;;;;;5.40;3.47;;;;;;;;;;5045398;28;20033;-75
2023/07/31 12:41:07;;;;;;;5.53;3.50;;;;;;;;;;5048974;28;20106;-77
2023/07/31 12:43:33;;;;;;;6.50;4.15;;;;;;;;;;5067400;28;20053;-75
2023/07/31 12:45:58;;;;;;;4.78;3.50;;;;;;;;;;5065045;28;20039;-73
2023/07/31 12:48:23;;;;;;;5.43;3.60;;;;;;;;;;5035568;28;20147;-74
2023/07/31 12:50:48;;;;;;;5.13;3.70;;;;;;;;;;5063939;28;20032;-75
2023/07/31 12:53:14;;;;;;;5.20;3.40;;;;;;;;;;5056824;28;20037;-76
2023/07/31 12:55:40;;;;;;;4.47;3.55;;;;;;;;;;5059074;28;20032;-76
2023/07/31 12:58:05;;;;;;;5.77;4.07;;;;;;;;;;5054499;28;20035;-75
2023/07/31 13:00:30;;;;;;;5.73;3.93;;;;;;;;;;5053139;28;20041;-74
2023/07/31 13:02:55;;;;;;;4.90;4.00;;;;;;;;;;5055415;28;20123;-74
2023/07/31 13:05:21;;;;;;;5.07;4.03;;;;;;;;;;5054922;28;20109;-73
2023/07/31 13:07:47;;;;;;;5.90;4.40;;;;;;;;;;5053067;28;20036;-74
2023/07/31 13:10:12;;;;;;;5.75;4.75;;;;;;;;;;5053765;28;20060;-74
2023/07/31 13:12:37;;;;;;;6.33;4.27;;;;;;;;;;5053723;28;20032;-73
2023/07/31 13:15:03;;;;;;;5.50;4.55;;;;;;;;;;5052852;28;20572;-75
2023/07/31 13:17:28;;;;;;;5.35;4.47;;;;;;;;;;5052485;28;20059;-74
2023/07/31 13:19:54;;;;;;;6.77;5.20;;;;;;;;;;5058537;28;20044;-74
2023/07/31 13:22:19;;;;;;;6.00;4.47;;;;;;;;;;5059536;28;20076;-73
2023/07/31 13:24:44;;;;;;;5.43;4.50;;;;;;;;;;5062985;28;20039;-75
2023/07/31 13:27:09;;;;;;;5.50;4.87;;;;;;;;;;5053259;28;20048;-74
2023/07/31 13:29:35;;;;;;;6.43;4.40;;;;;;;;;;5055181;28;20044;-75
2023/07/31 13:32:00;;;;;;;5.40;4.30;;;;;;;;;;5061271;28;20178;-74
2023/07/31 13:34:25;;;;;;;5.45;4.00;;;;;;;;;;5055105;28;20080;-74
2023/07/31 13:36:50;;;;;;;4.53;3.87;;;;;;;;;;5053734;28;20040;-73
2023/07/31 13:39:15;;;;;;;6.77;4.23;;;;;;;;;;5051897;28;20033;-75
2023/07/31 13:41:41;;;;;;;4.53;3.80;;;;;;;;;;5054657;28;20028;-75
2023/07/31 13:44:06;;;;;;;4.70;3.78;;;;;;;;;;5046983;28;20302;-76
2023/07/31 13:46:32;;;;;;;4.50;3.70;;;;;;;;;;5056947;28;20033;-73
2023/07/31 13:48:57;;;;;;;4.45;3.67;;;;;;;;;;5060914;28;20044;-75
2023/07/31 13:51:23;;;;;;;4.47;3.58;;;;;;;;;;5059287;28;20040;-74
2023/07/31 13:53:48;;;;;;;5.50;3.60;;;;;;;;;;5052943;28;20047;-75
2023/07/31 13:56:13;;;;;;;4.32;3.75;;;;;;;;;;5057758;28;20804;-75
2023/07/31 13:58:39;;;;;;;3.88;3.30;;;;;;;;;;5058541;28;20102;-75
2023/07/31 14:01:04;;;;;;;4.17;3.63;;;;;;;;;;5063028;28;20086;-75
2023/07/31 14:03:29;;;;;;;4.70;3.40;;;;;;;;;;5034744;28;20043;-74
2023/07/31 14:05:55;;;;;;;5.80;3.63;;;;;;;;;;5057343;28;20310;-73
2023/07/31 14:08:20;;;;;;;3.97;3.47;;;;;;;;;;5043778;28;20044;-75
2023/07/31 14:10:45;;;;;;;4.67;3.20;;;;;;;;;;5051289;28;20033;-74
2023/07/31 14:13:11;;;;;;;4.17;2.93;;;;;;;;;;5056255;28;20142;-75
2023/07/31 14:15:36;;;;;;;3.60;2.73;;;;;;;;;;5058949;28;20339;-75
2023/07/31 14:18:02;;;;;;;4.20;3.30;;;;;;;;;;5054225;28;20515;-75
2023/07/31 14:20:27;;;;;;;4.28;3.22;;;;;;;;;;5058734;28;20506;-75
2023/07/31 14:22:52;;;;;;;3.80;3.17;;;;;;;;;;5060889;28;20121;-74
2023/07/31 14:25:18;;;;;;;4.43;3.33;;;;;;;;;;5053709;28;20578;-74